createdAt,value
2023-02-11T00:01:31.653Z,47.83
2023-02-11T00:03:59.369Z,47.50
2023-02-11T00:06:28.162Z,49.80
2023-02-11T00:08:56.194Z,51.87
2023-02-11T00:11:25.579Z,50.00
2023-02-11T00:13:52.731Z,49.33
2023-02-11T00:16:21.499Z,52.03
2023-02-11T00:18:50.329Z,53.93
2023-02-11T00:21:19.924Z,49.90
2023-02-11T00:23:49.204Z,47.50
2023-02-11T00:26:30.740Z,47.63
2023-02-11T00:28:57.912Z,47.13
2023-02-11T00:31:26.266Z,53.53
2023-02-11T00:33:53.880Z,49.87
2023-02-11T00:36:24.730Z,45.23
2023-02-11T00:38:53.687Z,49.33
2023-02-11T00:41:21.363Z,52.90
2023-02-11T00:43:48.814Z,44.27
2023-02-11T00:46:16.520Z,49.37
2023-02-11T00:48:43.689Z,53.97
2023-02-11T00:51:11.280Z,46.10
2023-02-11T00:53:38.307Z,49.27
2023-02-11T00:56:06.037Z,50.73
2023-02-11T00:58:33.851Z,50.93
2023-02-11T01:01:00.801Z,48.00
2023-02-11T01:03:27.950Z,46.60
2023-02-11T01:05:55.575Z,49.67
2023-02-11T01:08:23.013Z,45.37
2023-02-11T01:11:07.885Z,45.47
2023-02-11T01:13:37.303Z,46.33
2023-02-11T01:16:07.711Z,43.23
2023-02-11T01:18:34.979Z,45.37
2023-02-11T01:21:01.951Z,43.97
2023-02-11T01:23:28.992Z,42.17
2023-02-11T01:25:57.127Z,45.83
2023-02-11T01:28:26.642Z,46.13
2023-02-11T01:30:54.446Z,41.43
2023-02-11T01:33:22.335Z,52.90
2023-02-11T01:35:50.285Z,50.67
2023-02-11T01:38:23.994Z,43.03
2023-02-11T01:41:02.089Z,43.00
2023-02-11T01:43:34.800Z,49.63
2023-02-11T01:46:13.482Z,43.47
2023-02-11T01:48:44.373Z,44.73
2023-02-11T01:51:18.902Z,53.30
2023-02-11T01:54:06.434Z,51.40
2023-02-11T01:56:54.891Z,43.40
2023-02-11T01:59:30.658Z,45.93
2023-02-11T02:02:05.821Z,47.03
2023-02-11T02:04:39.143Z,47.87
2023-02-11T02:07:14.481Z,45.87
2023-02-11T02:09:48.468Z,50.63
2023-02-11T02:12:15.532Z,46.17
2023-02-11T02:14:43.099Z,50.57
2023-02-11T02:17:38.536Z,41.00
2023-02-11T02:20:38.907Z,45.43
2023-02-11T02:23:44.202Z,46.60
2023-02-11T02:26:35.309Z,43.07
2023-02-11T02:29:42.887Z,46.57
2023-02-11T02:32:28.334Z,46.00
2023-02-11T02:35:04.550Z,48.00
2023-02-11T02:37:37.344Z,48.43
2023-02-11T02:40:20.028Z,39.93
2023-02-11T02:42:48.208Z,38.83
2023-02-11T02:45:15.901Z,42.20
2023-02-11T02:47:43.030Z,40.90
2023-02-11T02:50:11.301Z,42.03
2023-02-11T02:52:59.956Z,43.43
2023-02-11T02:55:29.637Z,43.73
2023-02-11T02:57:59.691Z,54.20
2023-02-11T03:00:55.327Z,38.03
2023-02-11T03:04:00.225Z,41.27
2023-02-11T03:06:33.207Z,41.07
2023-02-11T03:09:12.420Z,37.90
2023-02-11T03:11:40.587Z,47.07
2023-02-11T03:14:12.202Z,41.77
2023-02-11T03:16:40.105Z,33.93
2023-02-11T03:19:26.782Z,42.10
2023-02-11T03:21:56.127Z,37.67
2023-02-11T03:24:36.925Z,42.87
2023-02-11T03:27:31.244Z,39.90
2023-02-11T03:30:04.287Z,40.53
2023-02-11T03:32:41.368Z,34.33
2023-02-11T03:35:15.275Z,41.23
2023-02-11T03:38:05.566Z,36.23
2023-02-11T03:40:39.358Z,42.03
2023-02-11T03:43:17.315Z,37.13
2023-02-11T03:45:46.032Z,38.30
2023-02-11T03:48:42.221Z,38.10
2023-02-11T03:51:12.703Z,34.60
2023-02-11T03:53:43.814Z,33.73
2023-02-11T03:56:18.132Z,39.43
2023-02-11T03:58:47.097Z,37.80
2023-02-11T04:01:15.936Z,37.57
2023-02-11T04:03:43.365Z,42.90
2023-02-11T04:06:10.432Z,41.30
2023-02-11T04:08:37.445Z,44.57
2023-02-11T04:11:04.433Z,38.33
2023-02-11T04:13:31.403Z,46.23
2023-02-11T04:15:58.336Z,37.10
2023-02-11T04:18:25.341Z,43.53
2023-02-11T04:20:53.443Z,45.00
2023-02-11T04:23:20.468Z,38.30
2023-02-11T04:25:47.541Z,41.33
2023-02-11T04:28:14.704Z,45.30
2023-02-11T04:30:51.455Z,41.73
2023-02-11T04:33:18.536Z,42.23
2023-02-11T04:35:49.110Z,48.83
2023-02-11T04:38:17.197Z,48.23
2023-02-11T04:40:44.207Z,54.43
2023-02-11T04:43:12.941Z,49.97
2023-02-11T04:45:40.507Z,45.23
2023-02-11T04:48:07.977Z,52.20
2023-02-11T04:50:35.316Z,49.70
2023-02-11T04:53:04.843Z,50.57
2023-02-11T04:55:31.835Z,47.60
2023-02-11T04:57:58.840Z,46.87
2023-02-11T05:00:33.179Z,54.60
2023-02-11T05:03:04.199Z,50.80
2023-02-11T05:05:31.908Z,48.90
2023-02-11T05:07:59.874Z,59.53
2023-02-11T05:10:27.350Z,46.57
2023-02-11T05:12:55.976Z,48.77
2023-02-11T05:15:23.109Z,55.77
2023-02-11T05:17:53.068Z,54.57
2023-02-11T05:20:24.295Z,48.30
2023-02-11T05:22:51.774Z,59.53
2023-02-11T05:25:18.980Z,44.63
2023-02-11T05:27:45.896Z,53.47
2023-02-11T05:30:17.505Z,49.03
2023-02-11T05:32:44.522Z,50.40
2023-02-11T05:35:11.429Z,48.37
2023-02-11T05:37:41.841Z,53.97
2023-02-11T05:40:09.973Z,48.00
2023-02-11T05:42:37.041Z,48.60
2023-02-11T05:45:04.835Z,52.60
2023-02-11T05:47:31.882Z,56.07
2023-02-11T05:49:58.926Z,55.27
2023-02-11T05:52:25.925Z,59.10
2023-02-11T05:54:53.015Z,66.67
2023-02-11T05:57:20.117Z,57.67
2023-02-11T05:59:47.159Z,53.87
2023-02-11T06:02:14.377Z,54.13
2023-02-11T06:04:41.681Z,59.00
2023-02-11T06:07:11.903Z,59.47
2023-02-11T06:09:39.939Z,53.13
2023-02-11T06:12:07.766Z,61.10
2023-02-11T06:14:38.598Z,57.07
2023-02-11T06:17:06.523Z,62.23
2023-02-11T06:19:34.391Z,64.00
2023-02-11T06:22:04.654Z,59.23
2023-02-11T06:24:58.548Z,52.83
2023-02-11T06:27:19.951Z,61.20
2023-02-11T06:29:47.913Z,67.30
2023-02-11T06:32:39.538Z,65.83
2023-02-11T06:35:05.139Z,67.97
2023-02-11T06:37:33.517Z,61.70
2023-02-11T06:40:00.509Z,61.43
2023-02-11T06:42:27.592Z,65.77
2023-02-11T06:44:54.526Z,60.93
2023-02-11T06:47:21.584Z,67.30
2023-02-11T06:49:48.803Z,72.10
2023-02-11T06:52:15.786Z,61.90
2023-02-11T06:54:42.788Z,65.17
2023-02-11T06:57:09.833Z,61.13
2023-02-11T06:59:38.235Z,67.60
2023-02-11T07:02:05.516Z,75.60
2023-02-11T07:04:32.643Z,69.10
2023-02-11T07:06:59.579Z,70.57
2023-02-11T07:09:26.527Z,75.30
2023-02-11T07:11:53.504Z,71.30
2023-02-11T07:14:20.715Z,72.60
2023-02-11T07:16:47.843Z,80.10
2023-02-11T07:19:15.020Z,82.70
2023-02-11T07:21:45.676Z,71.77
2023-02-11T07:24:13.888Z,79.87
2023-02-11T07:26:45.505Z,78.17
2023-02-11T07:29:15.024Z,68.67
2023-02-11T07:31:42.193Z,78.93
2023-02-11T07:34:11.218Z,80.47
2023-02-11T07:36:38.309Z,84.33
2023-02-11T07:39:05.343Z,80.07
2023-02-11T07:41:37.636Z,104.17
2023-02-11T07:44:15.202Z,81.50
2023-02-11T07:46:45.806Z,86.50
2023-02-11T07:49:21.829Z,79.70
2023-02-11T07:51:57.825Z,83.07
2023-02-11T07:54:25.545Z,77.07
2023-02-11T07:56:53.131Z,84.57
2023-02-11T07:59:20.580Z,85.43
2023-02-11T08:01:47.921Z,85.53
2023-02-11T08:04:18.496Z,81.97
2023-02-11T08:06:45.627Z,88.60
2023-02-11T08:09:16.946Z,90.87
2023-02-11T08:11:46.163Z,89.47
2023-02-11T08:14:14.563Z,90.63
2023-02-11T08:16:42.107Z,91.13
2023-02-11T08:19:13.788Z,101.70
2023-02-11T08:21:41.432Z,99.90
2023-02-11T08:24:09.165Z,103.33
2023-02-11T08:26:36.689Z,91.27
2023-02-11T08:29:09.654Z,95.43
2023-02-11T08:31:39.853Z,91.17
2023-02-11T08:34:07.131Z,96.40
2023-02-11T08:36:36.260Z,97.63
2023-02-11T08:39:18.144Z,107.67
2023-02-11T08:41:51.290Z,104.10
2023-02-11T08:44:20.427Z,98.87
2023-02-11T08:46:49.225Z,99.07
2023-02-11T08:49:16.846Z,100.70
2023-02-11T08:51:44.832Z,101.63
2023-02-11T08:54:15.787Z,103.60
2023-02-11T08:56:44.439Z,99.30
2023-02-11T08:59:18.553Z,112.90
2023-02-11T09:02:06.458Z,108.13
2023-02-11T09:04:33.526Z,100.07
2023-02-11T09:07:00.540Z,98.10
2023-02-11T09:09:27.535Z,106.97
2023-02-11T09:11:57.281Z,101.27
2023-02-11T09:14:25.331Z,96.37
2023-02-11T09:16:53.236Z,110.23
2023-02-11T09:19:21.332Z,105.20
2023-02-11T09:21:48.476Z,100.03
2023-02-11T09:24:15.792Z,101.00
2023-02-11T09:26:43.648Z,108.23
2023-02-11T09:29:10.773Z,103.20
2023-02-11T09:31:37.891Z,99.20
2023-02-11T09:34:06.448Z,101.17
2023-02-11T09:36:38.825Z,109.13
2023-02-11T09:39:09.001Z,104.67
2023-02-11T09:41:55.723Z,101.90
2023-02-11T09:44:26.340Z,91.80
2023-02-11T09:47:04.589Z,104.20
2023-02-11T09:49:44.553Z,95.80
2023-02-11T09:52:26.595Z,105.00
2023-02-11T09:54:59.477Z,97.70
2023-02-11T09:57:36.111Z,91.63
2023-02-11T10:00:22.408Z,96.67
2023-02-11T10:03:11.628Z,99.10
2023-02-11T10:05:50.585Z,99.63
2023-02-11T10:08:30.065Z,95.43
2023-02-11T10:11:32.492Z,102.23
2023-02-11T10:14:18.452Z,91.50
2023-02-11T10:16:51.304Z,97.20
2023-02-11T10:19:27.178Z,96.07
2023-02-11T10:22:02.279Z,96.53
2023-02-11T10:24:29.558Z,102.27
2023-02-11T10:26:56.550Z,90.10
2023-02-11T10:29:44.250Z,107.30
2023-02-11T10:32:31.374Z,99.03
2023-02-11T10:35:02.914Z,86.03
2023-02-11T10:37:30.826Z,105.67
2023-02-11T10:39:57.913Z,102.20
2023-02-11T10:42:25.930Z,96.17
2023-02-11T10:45:00.344Z,90.63
2023-02-11T10:47:34.540Z,105.07
2023-02-11T10:50:03.737Z,96.27
2023-02-11T10:52:31.826Z,96.43
2023-02-11T10:55:01.121Z,99.23
2023-02-11T10:57:37.374Z,97.17
2023-02-11T11:00:32.382Z,98.90
2023-02-11T11:03:01.193Z,94.00
2023-02-11T11:05:53.188Z,87.70
2023-02-11T11:08:20.491Z,100.70
2023-02-11T11:11:06.562Z,92.90
2023-02-11T11:13:43.409Z,92.23
2023-02-11T11:16:13.467Z,95.10
2023-02-11T11:18:49.171Z,98.43
2023-02-11T11:21:26.725Z,95.90
2023-02-11T11:24:00.141Z,95.33
2023-02-11T11:26:41.696Z,85.20
2023-02-11T11:29:16.814Z,85.17
2023-02-11T11:32:13.023Z,101.13
2023-02-11T11:34:48.728Z,90.37
2023-02-11T11:37:34.339Z,86.60
2023-02-11T11:40:09.126Z,82.83
2023-02-11T11:42:38.697Z,92.17
2023-02-11T11:45:20.857Z,91.37
2023-02-11T11:47:54.549Z,88.30
2023-02-11T11:50:54.968Z,88.40
2023-02-11T11:53:48.295Z,92.37
2023-02-11T11:56:42.500Z,89.77
2023-02-11T11:59:16.569Z,92.03
2023-02-11T12:02:08.670Z,90.60
2023-02-11T12:05:23.442Z,87.97
2023-02-11T12:08:01.100Z,104.23
2023-02-11T12:10:42.458Z,95.73
2023-02-11T12:13:23.362Z,91.13
2023-02-11T12:16:15.905Z,92.63
2023-02-11T12:19:01.452Z,97.87
2023-02-11T12:21:42.513Z,91.27
2023-02-11T12:24:29.365Z,96.37
2023-02-11T12:27:20.799Z,93.03
2023-02-11T12:30:08.987Z,96.50
2023-02-11T12:33:05.247Z,102.23
2023-02-11T12:35:45.811Z,104.93
2023-02-11T12:38:27.483Z,99.37
2023-02-11T12:41:49.246Z,97.03
2023-02-11T12:44:34.330Z,97.70
2023-02-11T12:47:01.307Z,93.43
2023-02-11T12:50:02.606Z,89.50
2023-02-11T12:52:48.449Z,91.77
2023-02-11T12:55:23.008Z,84.47
2023-02-11T12:57:52.502Z,85.83
2023-02-11T13:00:22.561Z,73.93
2023-02-11T13:03:11.115Z,68.70
2023-02-11T13:05:46.922Z,66.53
2023-02-11T13:08:22.850Z,68.73
2023-02-11T13:10:54.802Z,65.97
2023-02-11T13:13:26.905Z,65.73
2023-02-11T13:16:17.269Z,65.90
2023-02-11T13:19:15.510Z,65.23
2023-02-11T13:22:00.930Z,60.17
2023-02-11T13:25:01.463Z,59.63
2023-02-11T13:27:58.499Z,53.70
2023-02-11T13:30:32.681Z,49.60
2023-02-11T13:33:01.051Z,51.07
2023-02-11T13:35:36.656Z,46.30
2023-02-11T13:38:06.706Z,46.87
2023-02-11T13:40:36.997Z,53.17
2023-02-11T13:43:06.947Z,47.13
2023-02-11T13:45:47.224Z,50.23
2023-02-11T13:48:36.520Z,50.43
2023-02-11T13:51:07.801Z,46.00
2023-02-11T13:53:54.786Z,48.77
2023-02-11T13:56:32.429Z,54.03
2023-02-11T13:59:02.358Z,44.67
2023-02-11T14:02:20.656Z,50.77
2023-02-11T14:05:21.371Z,45.70
2023-02-11T14:08:28.916Z,51.37
2023-02-11T14:11:14.422Z,54.77
2023-02-11T14:13:47.453Z,52.13
2023-02-11T14:16:31.672Z,55.43
2023-02-11T14:19:03.811Z,53.10
2023-02-11T14:21:35.855Z,53.73
2023-02-11T14:24:04.909Z,54.33
2023-02-11T14:26:54.023Z,57.53
2023-02-11T14:29:40.342Z,48.57
2023-02-11T14:32:52.070Z,60.40
2023-02-11T14:35:43.865Z,61.00
2023-02-11T14:38:43.974Z,62.77
2023-02-11T14:41:24.378Z,63.33
2023-02-11T14:44:23.009Z,73.00
2023-02-11T14:46:53.432Z,64.17
2023-02-11T14:49:33.919Z,69.50
2023-02-11T14:52:17.244Z,63.80
2023-02-11T14:54:48.586Z,62.17
2023-02-11T14:57:18.138Z,61.83
2023-02-11T15:00:03.739Z,65.80
2023-02-11T15:02:37.418Z,60.20
2023-02-11T15:05:16.093Z,56.00
2023-02-11T15:07:58.414Z,65.70
2023-02-11T15:10:36.852Z,60.77
2023-02-11T15:13:05.185Z,58.80
2023-02-11T15:15:33.138Z,56.80
2023-02-11T15:18:03.453Z,61.43
2023-02-11T15:20:32.658Z,61.40
2023-02-11T15:23:03.470Z,53.93
2023-02-11T15:25:33.727Z,56.57
2023-02-11T15:28:01.583Z,55.47
2023-02-11T15:30:36.345Z,50.97
2023-02-11T15:33:06.890Z,52.50
2023-02-11T15:35:41.023Z,50.70
2023-02-11T15:38:11.138Z,53.60
2023-02-11T15:40:38.144Z,52.33
2023-02-11T15:43:06.426Z,53.13
2023-02-11T15:45:40.492Z,54.33
2023-02-11T15:48:13.384Z,54.43
2023-02-11T15:50:42.563Z,55.67
2023-02-11T15:53:21.177Z,59.93
2023-02-11T15:55:52.519Z,52.93
2023-02-11T15:58:20.142Z,55.83
2023-02-11T16:00:50.207Z,59.43
2023-02-11T16:03:28.724Z,53.40
2023-02-11T16:05:56.553Z,48.00
2023-02-11T16:08:29.406Z,54.63
2023-02-11T16:10:59.506Z,49.87
2023-02-11T16:13:28.360Z,58.57
2023-02-11T16:16:04.098Z,64.93
2023-02-11T16:18:52.079Z,63.80
2023-02-11T16:21:39.519Z,67.53
2023-02-11T16:24:24.693Z,73.60
2023-02-11T16:26:54.685Z,73.17
2023-02-11T16:29:36.498Z,74.23
2023-02-11T16:32:30.332Z,74.00
2023-02-11T16:35:00.736Z,67.87
2023-02-11T16:37:31.619Z,66.57
2023-02-11T16:39:58.605Z,74.23
2023-02-11T16:42:25.608Z,63.10
2023-02-11T16:44:52.593Z,61.63
2023-02-11T16:47:28.223Z,70.87
2023-02-11T16:49:56.688Z,61.60
2023-02-11T16:52:24.343Z,69.13
2023-02-11T16:54:51.445Z,66.77
2023-02-11T16:57:23.832Z,65.23
2023-02-11T16:59:51.433Z,61.07
2023-02-11T17:02:34.523Z,77.00
2023-02-11T17:05:04.853Z,74.20
2023-02-11T17:07:32.223Z,70.27
2023-02-11T17:09:59.512Z,70.90
2023-02-11T17:12:27.122Z,70.43
2023-02-11T17:14:54.229Z,65.97
2023-02-11T17:17:23.574Z,67.57
2023-02-11T17:19:51.343Z,59.80
2023-02-11T17:22:18.992Z,61.33
2023-02-11T17:24:45.936Z,60.73
2023-02-11T17:27:13.339Z,58.07
2023-02-11T17:29:40.381Z,64.93
2023-02-11T17:32:07.607Z,57.70
2023-02-11T17:34:34.687Z,64.23
2023-02-11T17:37:07.660Z,68.00
2023-02-11T17:39:35.505Z,68.80
2023-02-11T17:42:02.960Z,67.60
2023-02-11T17:44:30.077Z,60.50
2023-02-11T17:46:56.969Z,69.30
2023-02-11T17:49:24.335Z,68.70
2023-02-11T17:51:51.432Z,74.40
2023-02-11T17:54:19.798Z,69.70
2023-02-11T17:56:50.599Z,70.63
2023-02-11T17:59:17.962Z,72.73
2023-02-11T18:01:44.925Z,75.70
2023-02-11T18:04:18.123Z,81.50
2023-02-11T18:06:45.830Z,74.97
2023-02-11T18:09:13.391Z,73.73
2023-02-11T18:11:41.018Z,71.70
2023-02-11T18:14:08.607Z,84.57
2023-02-11T18:16:38.734Z,72.00
2023-02-11T18:19:07.545Z,76.10
2023-02-11T18:21:34.963Z,72.57
2023-02-11T18:24:06.391Z,74.03
2023-02-11T18:26:35.635Z,76.17
2023-02-11T18:29:04.029Z,70.97
2023-02-11T18:31:31.549Z,71.60
2023-02-11T18:33:58.649Z,70.47
2023-02-11T18:36:25.698Z,73.37
2023-02-11T18:38:54.348Z,69.47
2023-02-11T18:41:21.734Z,77.77
2023-02-11T18:43:48.869Z,70.97
2023-02-11T18:46:16.465Z,74.83
2023-02-11T18:48:45.081Z,73.23
2023-02-11T18:51:18.721Z,76.83
2023-02-11T18:53:45.915Z,84.13
2023-02-11T18:56:18.730Z,77.27
2023-02-11T18:58:46.067Z,77.17
2023-02-11T19:01:24.378Z,69.57
2023-02-11T19:03:52.279Z,78.10
2023-02-11T19:06:25.623Z,82.60
2023-02-11T19:08:56.334Z,85.17
2023-02-11T19:11:44.808Z,75.57
2023-02-11T19:14:12.546Z,78.30
2023-02-11T19:16:41.583Z,68.90
2023-02-11T19:19:08.923Z,72.87
2023-02-11T19:21:36.560Z,80.57
2023-02-11T19:24:08.157Z,78.27
2023-02-11T19:26:35.784Z,87.20
2023-02-11T19:29:03.942Z,80.03
2023-02-11T19:31:32.366Z,81.07
2023-02-11T19:34:00.112Z,75.80
2023-02-11T19:36:27.552Z,83.30
2023-02-11T19:38:54.824Z,69.93
2023-02-11T19:41:23.169Z,70.23
2023-02-11T19:43:54.062Z,75.73
2023-02-11T19:46:21.498Z,73.60
2023-02-11T19:48:49.013Z,78.60
2023-02-11T19:51:17.019Z,73.73
2023-02-11T19:53:45.273Z,83.97
2023-02-11T19:56:13.336Z,77.90
2023-02-11T19:58:40.997Z,78.57
2023-02-11T20:01:09.189Z,80.63
2023-02-11T20:03:36.664Z,71.40
2023-02-11T20:06:08.108Z,80.37
2023-02-11T20:08:35.418Z,81.77
2023-02-11T20:11:10.801Z,80.10
2023-02-11T20:13:38.626Z,86.43
2023-02-11T20:16:12.430Z,75.20
2023-02-11T20:18:40.142Z,89.00
2023-02-11T20:21:12.821Z,87.50
2023-02-11T20:23:40.747Z,91.43
2023-02-11T20:26:24.937Z,79.70
2023-02-11T20:28:53.908Z,81.77
2023-02-11T20:31:21.838Z,80.47
2023-02-11T20:33:49.326Z,81.20
2023-02-11T20:36:18.000Z,78.20
2023-02-11T20:38:45.638Z,71.87
2023-02-11T20:41:17.372Z,82.40
2023-02-11T20:43:46.814Z,79.20
2023-02-11T20:46:15.819Z,74.27
2023-02-11T20:48:43.578Z,76.37
2023-02-11T20:51:13.083Z,77.57
2023-02-11T20:53:50.041Z,85.37
2023-02-11T20:56:28.976Z,77.70
2023-02-11T20:58:58.574Z,73.17
2023-02-11T21:01:28.396Z,75.80
2023-02-11T21:03:59.741Z,77.40
2023-02-11T21:06:30.871Z,84.07
2023-02-11T21:08:57.855Z,83.83
2023-02-11T21:11:24.876Z,78.67
2023-02-11T21:13:51.883Z,83.17
2023-02-11T21:16:20.884Z,83.30
2023-02-11T21:18:49.298Z,75.50
2023-02-11T21:21:17.564Z,78.30
2023-02-11T21:23:45.031Z,73.57
2023-02-11T21:26:12.293Z,71.43
2023-02-11T21:28:41.037Z,72.77
2023-02-11T21:31:08.730Z,76.60
2023-02-11T21:33:35.815Z,81.27
2023-02-11T21:36:04.593Z,84.53
2023-02-11T21:38:31.660Z,74.47
2023-02-11T21:41:04.395Z,84.73
2023-02-11T21:43:31.634Z,80.70
2023-02-11T21:45:59.030Z,85.93
2023-02-11T21:48:26.768Z,78.17
2023-02-11T21:50:54.169Z,74.73
2023-02-11T21:53:21.079Z,87.67
2023-02-11T21:55:49.338Z,89.30
2023-02-11T21:58:16.339Z,88.17
2023-02-11T22:00:43.409Z,75.73
2023-02-11T22:03:11.009Z,81.10
2023-02-11T22:05:41.319Z,81.53
2023-02-11T22:08:08.356Z,92.17
2023-02-11T22:10:35.300Z,85.40
2023-02-11T22:13:02.465Z,84.97
2023-02-11T22:15:29.507Z,83.70
2023-02-11T22:17:56.659Z,88.83
2023-02-11T22:20:23.651Z,93.07
2023-02-11T22:22:53.303Z,92.40
2023-02-11T22:25:20.371Z,85.23
2023-02-11T22:27:47.360Z,87.90
2023-02-11T22:30:14.393Z,91.20
2023-02-11T22:32:42.641Z,88.03
2023-02-11T22:35:09.614Z,91.40
2023-02-11T22:37:36.592Z,92.30
2023-02-11T22:40:03.751Z,91.10
2023-02-11T22:42:30.799Z,89.53
2023-02-11T22:44:57.848Z,96.13
2023-02-11T22:47:24.891Z,94.47
2023-02-11T22:49:51.918Z,97.17
2023-02-11T22:52:19.080Z,97.10
2023-02-11T22:54:46.231Z,101.10
2023-02-11T22:57:13.295Z,101.90
2023-02-11T22:59:40.201Z,110.03
2023-02-11T23:02:07.229Z,100.00
2023-02-11T23:04:34.332Z,96.93
2023-02-11T23:07:02.983Z,95.80
2023-02-11T23:09:29.968Z,102.87
2023-02-11T23:11:57.904Z,106.03
2023-02-11T23:14:25.198Z,93.10
2023-02-11T23:16:52.314Z,98.43
2023-02-11T23:19:20.183Z,103.53
2023-02-11T23:21:51.323Z,99.97
2023-02-11T23:24:18.314Z,106.17
2023-02-11T23:26:45.450Z,95.43
2023-02-11T23:29:12.923Z,94.90
2023-02-11T23:31:43.443Z,106.40
2023-02-11T23:34:10.896Z,98.07
2023-02-11T23:36:38.063Z,95.57
2023-02-11T23:39:05.464Z,93.73
2023-02-11T23:41:32.520Z,99.87
2023-02-11T23:43:59.536Z,90.00
2023-02-11T23:46:27.498Z,98.80
2023-02-11T23:48:54.971Z,93.97
2023-02-11T23:51:22.829Z,94.20
2023-02-11T23:53:50.014Z,93.67
2023-02-11T23:56:20.463Z,99.90
2023-02-11T23:58:52.304Z,100.57
